createdAt,value
2023-04-23T00:03:51.345Z,9.10
2023-04-23T00:09:08.066Z,9.10
2023-04-23T00:14:23.888Z,9.10
2023-04-23T00:19:39.450Z,9.10
2023-04-23T00:24:55.293Z,9.10
2023-04-23T00:30:11.779Z,8.90
2023-04-23T00:35:27.770Z,8.70
2023-04-23T00:40:43.686Z,8.70
2023-04-23T00:46:00.178Z,8.80
2023-04-23T00:51:17.684Z,8.70
2023-04-23T00:56:34.603Z,8.50
2023-04-23T01:01:50.601Z,8.40
2023-04-23T01:07:06.345Z,8.20
2023-04-23T01:12:23.455Z,8.20
2023-04-23T01:17:39.631Z,8.20
2023-04-23T01:22:55.596Z,8.20
2023-04-23T01:28:11.204Z,8.20
2023-04-23T01:33:26.932Z,8.10
2023-04-23T01:38:43.083Z,8.10
2023-04-23T01:43:59.855Z,7.90
2023-04-23T01:49:15.956Z,7.80
2023-04-23T01:54:31.624Z,7.80
2023-04-23T01:59:47.442Z,7.70
2023-04-23T02:05:04.931Z,7.60
2023-04-23T02:10:21.017Z,7.60
2023-04-23T02:15:38.525Z,7.40
2023-04-23T02:20:54.955Z,7.60
2023-04-23T02:26:11.063Z,7.60
2023-04-23T02:31:26.993Z,7.50
2023-04-23T02:36:43.125Z,7.60
2023-04-23T02:41:59.563Z,7.50
2023-04-23T02:47:15.152Z,7.30
2023-04-23T02:52:30.790Z,7.30
2023-04-23T02:57:46.701Z,7.20
2023-04-23T03:03:02.701Z,7.20
2023-04-23T03:08:18.480Z,7.10
2023-04-23T03:13:33.875Z,7.10
2023-04-23T03:18:50.158Z,7.00
2023-04-23T03:24:05.941Z,6.90
2023-04-23T03:29:21.374Z,7.00
2023-04-23T03:34:36.752Z,6.90
2023-04-23T03:39:52.681Z,6.90
2023-04-23T03:45:09.981Z,6.70
2023-04-23T03:50:26.108Z,6.70
2023-04-23T03:55:42.337Z,6.70
2023-04-23T04:00:58.332Z,6.60
2023-04-23T04:06:14.164Z,6.50
2023-04-23T04:11:30.126Z,6.50
2023-04-23T04:16:45.608Z,6.50
2023-04-23T04:22:03.755Z,6.50
2023-04-23T04:27:19.366Z,6.60
2023-04-23T04:32:35.906Z,6.70
2023-04-23T04:37:54.197Z,6.80
2023-04-23T04:43:10.618Z,6.80
2023-04-23T04:48:26.417Z,6.90
2023-04-23T04:53:42.292Z,7.10
2023-04-23T04:58:58.339Z,7.00
2023-04-23T05:04:14.321Z,7.30
2023-04-23T05:09:30.107Z,7.50
2023-04-23T05:14:46.940Z,7.70
2023-04-23T05:20:03.749Z,8.20
2023-04-23T05:25:19.080Z,8.50
2023-04-23T05:30:35.070Z,8.90
2023-04-23T05:35:50.856Z,9.40
2023-04-23T05:41:06.782Z,9.70
2023-04-23T05:46:22.366Z,10.20
2023-04-23T05:51:38.083Z,10.80
2023-04-23T05:56:54.789Z,11.50
2023-04-23T06:02:11.998Z,13.40
2023-04-23T06:07:27.989Z,16.90
2023-04-23T06:12:43.418Z,19.50
2023-04-23T06:17:59.220Z,19.80
2023-04-23T06:23:15.094Z,19.80
2023-04-23T06:28:30.755Z,19.50
2023-04-23T06:33:46.706Z,18.20
2023-04-23T06:39:01.961Z,18.70
2023-04-23T06:44:17.292Z,17.70
2023-04-23T06:49:33.157Z,16.80
2023-04-23T06:54:49.220Z,16.60
2023-04-23T07:00:09.154Z,16.50
2023-04-23T07:05:24.870Z,16.40
2023-04-23T07:10:40.740Z,16.70
2023-04-23T07:15:56.676Z,17.60
2023-04-23T07:21:12.354Z,20.50
2023-04-23T07:26:28.276Z,21.30
2023-04-23T07:31:44.584Z,22.80
2023-04-23T07:37:00.424Z,21.00
2023-04-23T07:42:15.896Z,22.20
2023-04-23T07:47:31.530Z,23.10
2023-04-23T07:52:47.551Z,22.40
2023-04-23T07:58:03.133Z,22.10
2023-04-23T08:03:19.166Z,21.00
2023-04-23T08:08:36.529Z,21.30
2023-04-23T08:13:52.035Z,21.20
2023-04-23T08:19:07.933Z,20.00
2023-04-23T08:24:23.924Z,20.10
2023-04-23T08:29:39.934Z,19.50
2023-04-23T08:34:55.543Z,19.60
2023-04-23T08:40:13.227Z,20.20
2023-04-23T08:45:31.122Z,18.50
2023-04-23T08:50:47.152Z,18.20
2023-04-23T08:56:03.901Z,18.30
2023-04-23T09:01:19.808Z,18.00
2023-04-23T09:06:36.386Z,18.20
2023-04-23T09:11:54.192Z,18.50
2023-04-23T09:17:10.585Z,19.60
2023-04-23T09:22:47.108Z,19.90
2023-04-23T09:28:07.789Z,20.30
2023-04-23T09:33:23.621Z,20.50
2023-04-23T09:38:41.818Z,18.40
2023-04-23T09:43:58.210Z,17.50
2023-04-23T09:49:15.344Z,18.30
2023-04-23T09:54:31.710Z,18.40
2023-04-23T09:59:51.460Z,19.20
2023-04-23T10:10:51.511Z,19.40
2023-04-23T10:16:22.542Z,19.20
2023-04-23T10:27:02.028Z,20.50
2023-04-23T10:32:18.561Z,21.00
2023-04-23T10:37:36.210Z,21.50
2023-04-23T10:42:53.201Z,21.50
2023-04-23T10:48:09.732Z,21.90
2023-04-23T10:53:26.664Z,22.50
2023-04-23T10:58:52.037Z,21.90
2023-04-23T11:04:24.743Z,21.10
2023-04-23T11:09:48.244Z,21.50
2023-04-23T11:15:19.396Z,21.70
2023-04-23T11:20:36.423Z,20.60
2023-04-23T11:25:52.884Z,20.70
2023-04-23T11:31:10.374Z,21.40
2023-04-23T11:36:27.769Z,20.80
2023-04-23T11:41:43.963Z,21.60
2023-04-23T11:47:05.046Z,22.70
2023-04-23T11:52:20.975Z,23.10
2023-04-23T11:57:41.339Z,22.70
2023-04-23T12:03:02.356Z,22.90
2023-04-23T12:08:20.484Z,21.90
2023-04-23T12:13:39.545Z,22.00
2023-04-23T12:18:55.233Z,21.70
2023-04-23T12:24:10.688Z,21.60
2023-04-23T12:29:29.511Z,22.00
2023-04-23T12:34:55.830Z,22.00
2023-04-23T12:40:11.714Z,22.00
2023-04-23T12:45:36.720Z,22.30
2023-04-23T12:50:52.698Z,21.20
2023-04-23T12:56:08.644Z,20.90
2023-04-23T13:01:24.604Z,21.00
2023-04-23T13:06:41.850Z,20.70
2023-04-23T13:11:57.960Z,20.40
2023-04-23T13:17:13.470Z,20.20
2023-04-23T13:22:30.016Z,20.90
2023-04-23T13:27:46.263Z,21.20
2023-04-23T13:33:01.982Z,21.40
2023-04-23T13:38:18.083Z,21.70
2023-04-23T13:43:33.897Z,21.70
2023-04-23T13:48:49.801Z,21.90
2023-04-23T13:54:05.482Z,21.70
2023-04-23T13:59:21.800Z,21.40
2023-04-23T14:04:37.827Z,21.20
2023-04-23T14:09:53.679Z,21.10
2023-04-23T14:15:10.149Z,21.40
2023-04-23T14:20:25.942Z,21.40
2023-04-23T14:25:46.783Z,21.20
2023-04-23T14:31:02.926Z,21.10
2023-04-23T14:36:19.009Z,20.60
2023-04-23T14:41:36.112Z,20.50
2023-04-23T14:46:52.507Z,20.60
2023-04-23T14:52:07.899Z,20.80
2023-04-23T14:57:23.794Z,20.70
2023-04-23T15:02:46.353Z,20.30
2023-04-23T15:08:02.420Z,20.10
2023-04-23T15:13:38.538Z,20.10
2023-04-23T15:18:54.260Z,20.40
2023-04-23T15:24:10.645Z,20.20
2023-04-23T15:29:26.567Z,20.00
2023-04-23T15:34:42.979Z,19.70
2023-04-23T15:39:58.932Z,19.50
2023-04-23T15:45:15.036Z,19.20
2023-04-23T15:50:30.758Z,19.10
2023-04-23T15:55:46.487Z,19.00
2023-04-23T16:01:03.228Z,19.00
2023-04-23T16:06:19.405Z,19.20
2023-04-23T16:11:36.897Z,19.20
2023-04-23T16:16:52.912Z,19.00
2023-04-23T16:22:08.791Z,18.70
2023-04-23T16:27:25.034Z,18.60
2023-04-23T16:32:40.831Z,18.60
2023-04-23T16:37:56.718Z,18.60
2023-04-23T16:43:12.688Z,18.50
2023-04-23T16:48:28.683Z,18.40
2023-04-23T16:53:44.644Z,18.40
2023-04-23T16:59:00.633Z,18.20
2023-04-23T17:04:16.648Z,18.00
2023-04-23T17:09:32.747Z,17.80
2023-04-23T17:14:48.999Z,17.70
2023-04-23T17:20:07.047Z,17.50
2023-04-23T17:25:22.846Z,17.30
2023-04-23T17:30:38.822Z,17.20
2023-04-23T17:35:56.085Z,17.00
2023-04-23T17:41:11.824Z,16.80
2023-04-23T17:46:27.747Z,16.50
2023-04-23T17:51:43.444Z,16.30
2023-04-23T17:56:59.374Z,16.10
2023-04-23T18:02:16.336Z,16.00
2023-04-23T18:07:32.100Z,15.70
2023-04-23T18:12:48.116Z,15.40
2023-04-23T18:18:04.770Z,15.20
2023-04-23T18:23:21.994Z,14.90
2023-04-23T18:28:37.855Z,14.80
2023-04-23T18:33:59.516Z,14.70
2023-04-23T18:39:15.547Z,14.60
2023-04-23T18:44:32.617Z,14.50
2023-04-23T18:49:57.336Z,14.40
2023-04-23T18:55:12.739Z,14.30
2023-04-23T19:00:28.623Z,14.10
2023-04-23T19:05:44.327Z,14.10
2023-04-23T19:11:00.729Z,14.10
2023-04-23T19:16:18.559Z,14.00
2023-04-23T19:21:34.363Z,14.10
2023-04-23T19:26:50.243Z,14.20
2023-04-23T19:32:06.819Z,14.20
2023-04-23T19:37:22.932Z,14.10
2023-04-23T19:42:38.423Z,14.00
2023-04-23T19:47:54.559Z,13.70
2023-04-23T19:53:10.844Z,13.50
2023-04-23T19:58:26.510Z,13.30
2023-04-23T20:03:44.031Z,13.20
2023-04-23T20:09:18.479Z,13.20
2023-04-23T20:14:35.060Z,13.00
2023-04-23T20:19:50.777Z,12.70
2023-04-23T20:25:08.401Z,12.60
2023-04-23T20:30:24.213Z,12.70
2023-04-23T20:35:42.007Z,12.60
2023-04-23T20:41:02.988Z,12.60
2023-04-23T20:46:19.144Z,12.50
2023-04-23T20:51:34.791Z,12.30
2023-04-23T20:56:54.438Z,12.20
2023-04-23T21:02:13.208Z,12.00
2023-04-23T21:07:29.546Z,12.00
2023-04-23T21:12:46.248Z,11.90
2023-04-23T21:18:02.900Z,11.60
2023-04-23T21:23:18.697Z,11.50
2023-04-23T21:28:34.724Z,11.40
2023-04-23T21:33:50.756Z,11.30
2023-04-23T21:39:08.409Z,11.20
2023-04-23T21:44:24.179Z,11.10
2023-04-23T21:49:40.157Z,10.90
2023-04-23T21:54:56.250Z,10.90
2023-04-23T22:00:14.161Z,11.00
2023-04-23T22:05:30.032Z,11.00
2023-04-23T22:10:45.973Z,10.90
2023-04-23T22:16:04.978Z,10.80
2023-04-23T22:21:22.596Z,10.80
2023-04-23T22:26:38.490Z,10.80
2023-04-23T22:31:54.397Z,10.70
2023-04-23T22:37:10.959Z,10.60
2023-04-23T22:42:26.767Z,10.60
2023-04-23T22:47:42.989Z,10.60
2023-04-23T22:52:58.840Z,10.60
2023-04-23T22:58:15.066Z,10.50
2023-04-23T23:03:30.961Z,10.60
2023-04-23T23:08:46.960Z,10.50
2023-04-23T23:14:04.544Z,10.50
2023-04-23T23:19:21.191Z,10.50
2023-04-23T23:24:36.645Z,10.60
2023-04-23T23:29:52.523Z,10.80
2023-04-23T23:35:09.471Z,10.80
2023-04-23T23:40:25.288Z,10.90
2023-04-23T23:45:41.688Z,10.90
2023-04-23T23:50:57.670Z,10.90
2023-04-23T23:56:13.449Z,10.90
